createdAt,value
2022-08-07T00:00:28.418Z,9.10
2022-08-07T00:03:09.130Z,8.50
2022-08-07T00:05:38.390Z,11.40
2022-08-07T00:08:07.877Z,11.20
2022-08-07T00:10:48.162Z,12.50
2022-08-07T00:13:26.819Z,9.10
2022-08-07T00:15:55.964Z,9.80
2022-08-07T00:18:27.961Z,9.90
2022-08-07T00:21:01.391Z,9.60
2022-08-07T00:23:32.379Z,9.30
2022-08-07T00:26:13.093Z,11.00
2022-08-07T00:28:55.745Z,10.30
2022-08-07T00:31:38.446Z,12.30
2022-08-07T00:34:10.739Z,11.50
2022-08-07T00:36:43.185Z,10.50
2022-08-07T00:39:16.674Z,10.30
2022-08-07T00:42:02.546Z,10.20
2022-08-07T00:44:34.993Z,9.50
2022-08-07T00:47:15.927Z,11.30
2022-08-07T00:50:19.572Z,10.00
2022-08-07T00:52:47.503Z,11.10
2022-08-07T00:55:17.494Z,12.90
2022-08-07T00:57:56.032Z,9.70
2022-08-07T01:00:25.238Z,13.50
2022-08-07T01:02:54.281Z,11.90
2022-08-07T01:05:24.515Z,10.00
2022-08-07T01:07:53.152Z,8.90
2022-08-07T01:10:23.989Z,8.20
2022-08-07T01:12:54.666Z,11.20
2022-08-07T01:15:36.112Z,10.50
2022-08-07T01:18:16.812Z,9.60
2022-08-07T01:20:59.604Z,9.40
2022-08-07T01:23:37.949Z,11.80
2022-08-07T01:26:12.060Z,9.70
2022-08-07T01:28:46.151Z,12.20
2022-08-07T01:33:55.605Z,10.40
2022-08-07T01:36:33.934Z,11.20
2022-08-07T01:39:10.689Z,9.70
2022-08-07T01:42:07.493Z,10.20
2022-08-07T01:44:35.497Z,10.50
2022-08-07T01:48:16.386Z,12.80
2022-08-07T01:49:53.598Z,13.00
2022-08-07T01:52:26.661Z,12.70
2022-08-07T01:55:00.341Z,14.40
2022-08-07T01:58:05.573Z,10.90
2022-08-07T02:00:31.306Z,10.20
2022-08-07T02:03:18.174Z,10.40
2022-08-07T02:06:08.866Z,10.90
2022-08-07T02:08:54.604Z,15.00
2022-08-07T02:11:30.678Z,11.60
2022-08-07T02:14:40.357Z,11.40
2022-08-07T02:17:10.992Z,13.40
2022-08-07T02:20:04.768Z,11.30
2022-08-07T02:22:40.970Z,13.00
2022-08-07T02:25:13.974Z,14.20
2022-08-07T02:27:55.976Z,12.20
2022-08-07T02:30:25.865Z,12.40
2022-08-07T02:33:00.241Z,11.70
2022-08-07T02:36:26.803Z,9.60
2022-08-07T02:38:33.394Z,15.50
2022-08-07T02:41:04.580Z,10.00
2022-08-07T02:43:38.878Z,11.60
2022-08-07T02:46:11.106Z,13.20
2022-08-07T02:48:40.238Z,11.50
2022-08-07T02:51:42.735Z,8.80
2022-08-07T02:54:16.553Z,11.20
2022-08-07T02:56:47.671Z,9.90
2022-08-07T02:59:25.869Z,9.40
2022-08-07T03:02:02.306Z,11.20
2022-08-07T03:04:32.223Z,9.50
2022-08-07T03:07:07.341Z,11.40
2022-08-07T03:09:43.329Z,10.80
2022-08-07T03:12:22.464Z,10.50
2022-08-07T03:15:02.283Z,12.10
2022-08-07T03:17:53.911Z,8.80
2022-08-07T03:20:24.406Z,11.30
2022-08-07T03:22:55.306Z,11.60
2022-08-07T03:25:25.463Z,15.40
2022-08-07T03:28:08.848Z,10.60
2022-08-07T03:30:39.851Z,13.00
2022-08-07T03:33:11.171Z,14.10
2022-08-07T03:35:50.283Z,11.60
2022-08-07T03:38:21.059Z,10.50
2022-08-07T03:41:01.693Z,11.40
2022-08-07T03:43:33.253Z,10.80
2022-08-07T03:46:10.340Z,15.00
2022-08-07T03:48:45.561Z,11.40
2022-08-07T03:51:31.034Z,13.40
2022-08-07T03:54:36.096Z,14.50
2022-08-07T03:57:07.438Z,13.70
2022-08-07T03:59:37.471Z,9.40
2022-08-07T04:02:16.079Z,11.00
2022-08-07T04:04:45.791Z,9.00
2022-08-07T04:07:36.001Z,13.00
2022-08-07T04:10:15.426Z,10.30
2022-08-07T04:12:49.205Z,15.10
2022-08-07T04:15:19.444Z,8.70
2022-08-07T04:18:57.945Z,9.80
2022-08-07T04:20:54.374Z,12.90
2022-08-07T04:23:25.458Z,14.50
2022-08-07T04:26:13.995Z,10.20
2022-08-07T04:28:45.647Z,9.50
2022-08-07T04:31:20.037Z,10.00
2022-08-07T04:33:55.152Z,12.40
2022-08-07T04:36:26.245Z,12.80
2022-08-07T04:38:54.936Z,11.50
2022-08-07T04:41:23.209Z,11.50
2022-08-07T04:44:11.934Z,15.70
2022-08-07T04:47:04.980Z,9.70
2022-08-07T04:49:41.900Z,9.90
2022-08-07T04:52:27.990Z,9.70
2022-08-07T04:55:02.415Z,9.90
2022-08-07T04:58:11.571Z,16.50
2022-08-07T05:00:59.359Z,15.30
2022-08-07T05:04:06.911Z,12.60
2022-08-07T05:07:20.442Z,13.10
2022-08-07T05:09:55.049Z,10.30
2022-08-07T05:12:31.824Z,13.60
2022-08-07T05:15:23.313Z,11.40
2022-08-07T05:18:01.761Z,11.00
2022-08-07T05:20:47.240Z,11.40
2022-08-07T05:23:29.130Z,14.90
2022-08-07T05:26:13.420Z,14.20
2022-08-07T05:28:50.449Z,10.50
2022-08-07T05:31:24.074Z,13.50
2022-08-07T05:34:11.008Z,12.80
2022-08-07T05:36:43.866Z,11.30
2022-08-07T05:40:05.547Z,12.80
2022-08-07T05:42:14.291Z,12.20
2022-08-07T05:44:52.996Z,10.80
2022-08-07T05:47:38.285Z,9.40
2022-08-07T05:50:24.204Z,10.00
2022-08-07T05:52:52.384Z,11.80
2022-08-07T05:55:21.983Z,10.20
2022-08-07T05:57:53.012Z,13.40
2022-08-07T06:00:25.399Z,13.80
2022-08-07T06:03:00.737Z,11.70
2022-08-07T06:05:31.536Z,14.10
2022-08-07T06:08:29.424Z,12.80
2022-08-07T06:10:54.904Z,14.00
2022-08-07T06:14:10.664Z,15.50
2022-08-07T06:16:15.182Z,10.80
2022-08-07T06:18:51.822Z,12.70
2022-08-07T06:22:15.330Z,10.30
2022-08-07T06:24:52.512Z,10.30
2022-08-07T06:27:03.723Z,10.00
2022-08-07T06:29:34.275Z,14.90
2022-08-07T06:32:02.690Z,13.30
2022-08-07T06:34:33.325Z,10.30
2022-08-07T06:37:02.586Z,10.60
2022-08-07T06:40:12.973Z,12.20
2022-08-07T06:42:37.218Z,11.70
2022-08-07T06:45:37.927Z,11.90
2022-08-07T06:48:11.441Z,11.10
2022-08-07T06:50:47.826Z,8.90
2022-08-07T06:55:29.105Z,10.10
2022-08-07T06:56:15.111Z,10.60
2022-08-07T07:00:12.994Z,8.70
2022-08-07T07:01:43.894Z,9.90
2022-08-07T07:04:28.450Z,12.30
2022-08-07T07:07:10.681Z,10.90
2022-08-07T07:09:50.841Z,10.80
2022-08-07T07:12:48.413Z,9.70
2022-08-07T07:15:23.962Z,13.00
2022-08-07T07:18:48.163Z,10.60
2022-08-07T07:21:19.636Z,9.80
2022-08-07T07:24:06.626Z,10.90
2022-08-07T07:26:51.906Z,8.70
2022-08-07T07:29:56.711Z,9.20
2022-08-07T07:32:17.948Z,9.90
2022-08-07T07:34:49.456Z,9.30
2022-08-07T07:37:43.878Z,9.40
2022-08-07T07:40:15.565Z,10.00
2022-08-07T07:42:47.189Z,11.20
2022-08-07T07:46:36.559Z,13.90
2022-08-07T07:48:35.127Z,10.80
2022-08-07T07:51:08.603Z,11.10
2022-08-07T07:53:44.737Z,10.20
2022-08-07T07:56:30.585Z,10.00
2022-08-07T07:59:02.106Z,12.10
2022-08-07T08:02:02.299Z,9.10
2022-08-07T08:04:25.485Z,9.20
2022-08-07T08:06:55.392Z,11.00
2022-08-07T08:09:29.548Z,9.60
2022-08-07T08:12:03.845Z,9.20
2022-08-07T08:14:36.342Z,10.80
2022-08-07T08:17:55.272Z,10.70
2022-08-07T08:20:17.056Z,8.80
2022-08-07T08:23:12.062Z,8.90
2022-08-07T08:26:07.021Z,8.00
2022-08-07T08:28:44.735Z,7.20
2022-08-07T08:31:30.175Z,8.40
2022-08-07T08:34:12.443Z,10.10
2022-08-07T08:36:56.195Z,10.40
2022-08-07T08:39:39.350Z,12.10
2022-08-07T08:42:41.479Z,9.70
2022-08-07T08:45:58.524Z,8.00
2022-08-07T08:48:55.772Z,8.70
2022-08-07T08:52:13.391Z,8.60
2022-08-07T08:57:27.190Z,10.30
2022-08-07T09:00:04.535Z,8.50
2022-08-07T09:02:38.816Z,7.90
2022-08-07T09:05:53.806Z,9.90
2022-08-07T09:08:55.575Z,7.40
2022-08-07T09:11:24.500Z,9.40
2022-08-07T09:14:27.675Z,8.20
2022-08-07T09:17:17.625Z,7.30
2022-08-07T09:20:30.720Z,7.00
2022-08-07T09:26:17.196Z,7.90
2022-08-07T09:30:05.650Z,11.20
2022-08-07T09:32:01.318Z,8.90
2022-08-07T09:34:58.534Z,8.20
2022-08-07T09:38:12.297Z,9.10
2022-08-07T09:41:06.152Z,9.30
2022-08-07T09:44:06.170Z,7.90
2022-08-07T09:47:55.116Z,7.60
2022-08-07T09:50:18.641Z,11.00
2022-08-07T09:53:02.067Z,6.90
2022-08-07T09:56:04.393Z,9.10
2022-08-07T09:59:07.551Z,7.50
2022-08-07T10:02:05.070Z,6.50
2022-08-07T10:05:12.632Z,7.30
2022-08-07T10:07:52.424Z,9.70
2022-08-07T10:11:07.664Z,7.20
2022-08-07T10:14:00.979Z,7.40
2022-08-07T10:16:29.232Z,7.90
2022-08-07T10:19:11.158Z,8.60
2022-08-07T10:22:16.957Z,10.80
2022-08-07T10:25:04.825Z,6.40
2022-08-07T10:28:12.970Z,8.50
2022-08-07T10:30:59.632Z,9.20
2022-08-07T10:34:06.503Z,8.30
2022-08-07T10:37:16.059Z,6.40
2022-08-07T10:40:03.239Z,7.40
2022-08-07T10:42:42.873Z,7.20
2022-08-07T10:45:44.459Z,7.50
2022-08-07T10:48:34.755Z,8.50
2022-08-07T10:51:16.867Z,5.20
2022-08-07T10:54:41.723Z,7.90
2022-08-07T10:57:56.298Z,8.20
2022-08-07T11:00:36.732Z,6.50
2022-08-07T11:03:52.776Z,7.70
2022-08-07T11:06:35.885Z,6.70
2022-08-07T11:10:10.281Z,7.40
2022-08-07T11:12:32.273Z,6.40
2022-08-07T11:15:17.465Z,6.00
2022-08-07T11:17:53.081Z,5.30
2022-08-07T11:20:54.251Z,7.80
2022-08-07T11:23:38.388Z,9.90
2022-08-07T11:26:13.086Z,4.70
2022-08-07T11:28:53.490Z,6.20
2022-08-07T11:31:34.998Z,6.20
2022-08-07T11:34:16.538Z,7.10
2022-08-07T11:37:06.729Z,8.20
2022-08-07T11:40:00.006Z,5.10
2022-08-07T11:42:59.816Z,6.70
2022-08-07T11:45:35.960Z,9.40
2022-08-07T11:48:29.734Z,8.40
2022-08-07T11:51:41.955Z,6.40
2022-08-07T11:54:22.118Z,5.90
2022-08-07T11:57:03.512Z,5.30
2022-08-07T12:00:11.341Z,6.20
2022-08-07T12:03:01.243Z,5.50
2022-08-07T12:05:50.467Z,6.50
2022-08-07T12:08:31.709Z,8.60
2022-08-07T12:11:24.084Z,6.50
2022-08-07T12:14:11.715Z,5.70
2022-08-07T12:17:19.802Z,6.80
2022-08-07T12:20:09.493Z,7.20
2022-08-07T12:22:56.124Z,6.30
2022-08-07T12:26:02.953Z,6.60
2022-08-07T12:29:12.233Z,6.90
2022-08-07T12:32:04.095Z,5.60
2022-08-07T12:34:40.837Z,6.90
2022-08-07T12:37:17.027Z,7.10
2022-08-07T12:39:55.047Z,6.70
2022-08-07T12:42:28.623Z,7.20
2022-08-07T12:45:13.850Z,6.00
2022-08-07T12:47:56.415Z,8.80
2022-08-07T12:50:48.870Z,5.60
2022-08-07T12:53:19.021Z,6.10
2022-08-07T12:56:12.420Z,6.80
2022-08-07T12:58:46.766Z,7.90
2022-08-07T13:01:50.775Z,7.30
2022-08-07T13:05:06.431Z,6.00
2022-08-07T13:08:12.265Z,6.50
2022-08-07T13:11:16.822Z,7.00
2022-08-07T13:13:58.128Z,6.80
2022-08-07T13:16:53.519Z,5.20
2022-08-07T13:19:50.886Z,6.40
2022-08-07T13:22:40.850Z,6.60
2022-08-07T13:25:30.099Z,8.70
2022-08-07T13:28:12.934Z,7.20
2022-08-07T13:31:02.139Z,5.10
2022-08-07T13:34:32.138Z,7.90
2022-08-07T13:36:57.817Z,7.00
2022-08-07T13:40:34.291Z,6.10
2022-08-07T13:42:27.188Z,7.00
2022-08-07T13:46:06.135Z,6.60
2022-08-07T13:48:08.395Z,5.80
2022-08-07T13:51:00.019Z,6.30
2022-08-07T13:54:00.212Z,6.10
2022-08-07T13:56:35.655Z,8.70
2022-08-07T13:59:18.077Z,6.60
2022-08-07T14:02:03.754Z,7.00
2022-08-07T14:04:49.658Z,8.50
2022-08-07T14:07:23.097Z,6.10
2022-08-07T14:10:16.503Z,7.00
2022-08-07T14:15:35.115Z,6.70
2022-08-07T14:18:30.443Z,6.80
2022-08-07T14:21:21.170Z,7.70
2022-08-07T14:24:06.098Z,7.20
2022-08-07T14:26:50.343Z,6.60
2022-08-07T14:30:02.925Z,6.30
2022-08-07T14:32:13.241Z,8.60
2022-08-07T14:34:46.480Z,6.50
2022-08-07T14:37:18.633Z,6.80
2022-08-07T14:40:16.469Z,6.10
2022-08-07T14:43:01.443Z,6.60
2022-08-07T14:48:34.596Z,6.20
2022-08-07T14:51:15.810Z,7.90
2022-08-07T14:54:05.555Z,6.40
2022-08-07T14:56:40.637Z,8.20
2022-08-07T15:02:33.062Z,7.10
2022-08-07T15:05:05.016Z,7.10
2022-08-07T15:07:51.939Z,6.60
2022-08-07T15:10:26.119Z,7.40
2022-08-07T15:13:00.266Z,10.90
2022-08-07T15:15:43.083Z,8.20
2022-08-07T15:18:34.838Z,6.80
2022-08-07T15:21:43.740Z,10.80
2022-08-07T15:25:16.380Z,8.40
2022-08-07T15:27:03.947Z,8.90
2022-08-07T15:30:06.467Z,7.00
2022-08-07T15:35:18.221Z,6.40
2022-08-07T15:38:30.179Z,7.70
2022-08-07T15:43:58.860Z,6.10
2022-08-07T15:46:37.639Z,6.90
2022-08-07T15:49:14.536Z,8.00
2022-08-07T15:54:40.591Z,9.00
2022-08-07T15:57:39.833Z,8.60
2022-08-07T16:00:06.713Z,11.10
2022-08-07T16:02:47.147Z,8.10
2022-08-07T16:05:19.796Z,10.60
2022-08-07T16:08:31.349Z,6.30
2022-08-07T16:10:49.864Z,6.10
2022-08-07T16:13:59.403Z,7.40
2022-08-07T16:16:47.736Z,7.40
2022-08-07T16:19:58.994Z,8.00
2022-08-07T16:22:55.071Z,8.30
2022-08-07T16:25:54.916Z,10.10
2022-08-07T16:30:06.016Z,7.00
2022-08-07T16:31:51.668Z,13.90
2022-08-07T16:35:00.018Z,7.40
2022-08-07T16:38:06.662Z,6.30
2022-08-07T16:41:02.086Z,8.40
2022-08-07T16:44:06.018Z,6.70
2022-08-07T16:47:16.044Z,7.60
2022-08-07T16:50:35.963Z,7.30
2022-08-07T16:53:57.161Z,7.00
2022-08-07T16:59:45.995Z,7.00
2022-08-07T17:02:51.639Z,9.90
2022-08-07T17:06:18.815Z,7.70
2022-08-07T17:08:10.715Z,7.20
2022-08-07T17:10:54.815Z,6.90
2022-08-07T17:13:41.887Z,8.60
2022-08-07T17:16:29.384Z,7.70
2022-08-07T17:19:03.958Z,8.10
2022-08-07T17:21:52.306Z,8.80
2022-08-07T17:24:29.746Z,8.40
2022-08-07T17:26:58.633Z,10.10
2022-08-07T17:30:15.064Z,12.00
2022-08-07T17:32:57.716Z,9.20
2022-08-07T17:35:54.653Z,9.70
2022-08-07T17:38:46.592Z,10.90
2022-08-07T17:42:04.984Z,9.40
2022-08-07T17:44:35.083Z,9.70
2022-08-07T17:47:54.004Z,9.60
2022-08-07T17:50:35.563Z,10.00
2022-08-07T17:54:02.272Z,9.40
2022-08-07T17:56:42.138Z,9.30
2022-08-07T17:59:35.982Z,8.00
2022-08-07T18:02:23.268Z,7.90
2022-08-07T18:05:10.550Z,8.80
2022-08-07T18:08:16.438Z,9.60
2022-08-07T18:12:07.371Z,11.10
2022-08-07T18:14:16.646Z,15.00
2022-08-07T18:16:58.842Z,9.80
2022-08-07T18:21:03.564Z,15.00
2022-08-07T18:22:57.828Z,8.60
2022-08-07T18:25:39.359Z,9.80
2022-08-07T18:28:34.374Z,7.90
2022-08-07T18:31:40.445Z,9.80
2022-08-07T18:34:37.436Z,11.20
2022-08-07T18:38:57.834Z,10.20
2022-08-07T18:40:57.674Z,8.40
2022-08-07T18:44:03.064Z,8.00
2022-08-07T18:47:00.336Z,9.40
2022-08-07T18:50:19.275Z,9.30
2022-08-07T18:52:55.157Z,9.40
2022-08-07T18:55:57.295Z,9.00
2022-08-07T18:58:35.922Z,9.10
2022-08-07T19:02:17.502Z,11.30
2022-08-07T19:04:09.536Z,11.10
2022-08-07T19:06:51.505Z,9.90
2022-08-07T19:09:56.811Z,9.60
2022-08-07T19:12:37.052Z,9.00
2022-08-07T19:16:04.729Z,8.50
2022-08-07T19:18:44.802Z,10.90
2022-08-07T19:21:48.018Z,11.00
2022-08-07T19:24:30.430Z,10.30
2022-08-07T19:28:58.136Z,8.30
2022-08-07T19:31:06.290Z,7.80
2022-08-07T19:32:50.872Z,10.50
2022-08-07T19:35:26.825Z,11.00
2022-08-07T19:38:00.075Z,9.80
2022-08-07T19:40:34.794Z,8.20
2022-08-07T19:43:43.202Z,9.70
2022-08-07T19:46:10.778Z,10.10
2022-08-07T19:48:54.099Z,10.70
2022-08-07T19:51:51.901Z,10.20
2022-08-07T19:54:31.588Z,10.70
2022-08-07T19:58:02.927Z,10.10
2022-08-07T20:00:10.413Z,10.80
2022-08-07T20:02:52.164Z,11.20
2022-08-07T20:05:28.134Z,10.40
2022-08-07T20:08:01.044Z,9.50
2022-08-07T20:10:35.951Z,9.60
2022-08-07T20:13:32.025Z,10.40
2022-08-07T20:16:04.930Z,8.90
2022-08-07T20:18:34.768Z,10.60
2022-08-07T20:21:14.790Z,10.80
2022-08-07T20:23:57.964Z,9.00
2022-08-07T20:26:45.156Z,13.70
2022-08-07T20:29:49.464Z,11.90
2022-08-07T20:32:22.806Z,11.20
2022-08-07T20:35:01.217Z,11.20
2022-08-07T20:37:58.264Z,10.80
2022-08-07T20:40:34.312Z,10.00
2022-08-07T20:43:14.865Z,12.80
2022-08-07T20:46:25.745Z,10.90
2022-08-07T20:48:57.957Z,18.20
2022-08-07T20:51:36.065Z,12.70
2022-08-07T20:54:11.981Z,12.60
2022-08-07T20:56:50.066Z,12.90
2022-08-07T21:00:05.615Z,11.30
2022-08-07T21:02:55.248Z,14.10
2022-08-07T21:05:52.759Z,12.40
2022-08-07T21:08:38.101Z,13.60
2022-08-07T21:11:18.317Z,13.60
2022-08-07T21:14:16.426Z,11.40
2022-08-07T21:16:57.058Z,15.00
2022-08-07T21:19:51.627Z,13.70
2022-08-07T21:22:30.786Z,13.80
2022-08-07T21:25:19.454Z,13.70
2022-08-07T21:28:06.371Z,14.40
2022-08-07T21:30:43.221Z,12.80
2022-08-07T21:33:20.314Z,10.80
2022-08-07T21:36:31.089Z,13.50
2022-08-07T21:39:45.091Z,11.80
2022-08-07T21:42:10.688Z,10.20
2022-08-07T21:45:08.385Z,13.50
2022-08-07T21:48:27.589Z,12.50
2022-08-07T21:51:25.847Z,13.30
2022-08-07T21:54:19.328Z,13.30
2022-08-07T21:57:31.514Z,12.10
2022-08-07T22:00:24.884Z,14.20
2022-08-07T22:03:17.135Z,13.10
2022-08-07T22:05:56.143Z,13.20
2022-08-07T22:08:42.976Z,14.50
2022-08-07T22:11:17.655Z,17.50
2022-08-07T22:13:55.574Z,16.70
2022-08-07T22:16:42.220Z,16.60
2022-08-07T22:20:07.003Z,19.50
2022-08-07T22:22:45.982Z,17.70
2022-08-07T22:25:40.032Z,15.80
2022-08-07T22:28:31.146Z,14.20
2022-08-07T22:31:56.150Z,12.60
2022-08-07T22:34:31.721Z,10.80
2022-08-07T22:37:12.536Z,9.80
2022-08-07T22:40:05.054Z,12.50
2022-08-07T22:42:36.668Z,13.00
2022-08-07T22:45:11.048Z,13.80
2022-08-07T22:47:58.329Z,11.20
2022-08-07T22:50:43.580Z,12.80
2022-08-07T22:54:07.582Z,12.80
2022-08-07T22:57:26.030Z,14.80
2022-08-07T23:00:03.309Z,11.50
2022-08-07T23:02:46.878Z,11.40
2022-08-07T23:06:09.067Z,13.50
2022-08-07T23:08:31.882Z,13.00
2022-08-07T23:11:15.161Z,11.60
2022-08-07T23:14:10.541Z,14.60
2022-08-07T23:17:20.181Z,12.10
2022-08-07T23:20:51.280Z,12.40
2022-08-07T23:24:06.992Z,11.30
2022-08-07T23:26:30.013Z,11.10
2022-08-07T23:29:43.572Z,14.00
2022-08-07T23:34:21.201Z,9.60
2022-08-07T23:35:23.713Z,11.20
2022-08-07T23:38:05.729Z,16.00
2022-08-07T23:40:42.911Z,13.00
2022-08-07T23:43:43.537Z,15.70
2022-08-07T23:46:43.017Z,13.40
2022-08-07T23:49:50.441Z,14.60
2022-08-07T23:53:00.637Z,15.10
2022-08-07T23:55:52.618Z,16.00
2022-08-07T23:58:31.983Z,14.30
